Time;durP1;ratioP1;P1;durP2;ratioP2;P2;SDS_P1;SDS_P2;PMS_P1;PMS_P2;Temp;Humidity;BMP_temperature;BMP_pressure;BME280_temperature;BME280_humidity;BME280_pressure;Samples;Min_cycle;Max_cycle;Signal;HPM_P1;HPM_P2
2023/03/04 00:00:56;;;;;;;60.42;27.58;;;2.00;99.90;;;;;;2075890;28;20545;-76
2023/03/04 00:01:57;;;;;;;63.70;28.88;;;2.00;99.90;;;;;;2081241;28;20450;-76
2023/03/04 00:02:57;;;;;;;62.60;28.70;;;2.00;99.90;;;;;;2079088;28;20033;-76
2023/03/04 00:03:58;;;;;;;63.45;28.33;;;2.00;99.90;;;;;;2079712;28;20117;-77
2023/03/04 00:04:58;;;;;;;63.83;29.00;;;2.00;99.90;;;;;;2095929;28;20028;-75
2023/03/04 00:05:59;;;;;;;63.08;28.75;;;2.00;99.90;;;;;;2097080;28;20043;-77
2023/03/04 00:06:59;;;;;;;60.28;27.92;;;2.00;99.90;;;;;;2093427;28;20024;-77
2023/03/04 00:08:00;;;;;;;59.63;28.20;;;2.00;99.90;;;;;;2092811;28;20307;-76
2023/03/04 00:09:02;;;;;;;59.42;28.00;;;2.00;99.90;;;;;;2073373;28;20037;-76
2023/03/04 00:10:04;;;;;;;57.40;27.73;;;2.00;99.90;;;;;;2080995;28;20581;-76
2023/03/04 00:11:05;;;;;;;60.60;28.15;;;2.00;99.90;;;;;;2079933;28;20442;-77
2023/03/04 00:12:07;;;;;;;58.60;27.65;;;2.00;99.90;;;;;;2080356;28;20055;-76
2023/03/04 00:13:08;;;;;;;58.00;27.83;;;2.00;99.90;;;;;;2079156;28;20060;-76
2023/03/04 00:14:08;;;;;;;57.38;27.88;;;1.90;99.90;;;;;;2080242;28;20056;-78
2023/03/04 00:15:09;;;;;;;55.75;27.33;;;2.00;99.90;;;;;;2083373;28;20130;-77
2023/03/04 00:16:10;;;;;;;55.55;27.88;;;2.00;99.90;;;;;;2084183;28;20063;-76
2023/03/04 00:17:10;;;;;;;57.40;27.10;;;2.00;99.90;;;;;;2078899;28;20058;-83
2023/03/04 00:18:11;;;;;;;54.63;27.05;;;2.00;99.90;;;;;;2078905;28;20537;-81
2023/03/04 00:19:11;;;;;;;53.22;27.02;;;2.00;99.90;;;;;;2079224;28;20040;-81
2023/03/04 00:20:12;;;;;;;55.10;27.35;;;2.00;99.90;;;;;;2078817;28;20029;-81
2023/03/04 00:21:13;;;;;;;55.92;27.30;;;2.00;99.90;;;;;;2081129;28;20029;-83
2023/03/04 00:22:13;;;;;;;56.20;27.17;;;1.90;99.90;;;;;;2080256;28;20029;-82
2023/03/04 00:23:14;;;;;;;52.28;25.70;;;2.00;99.90;;;;;;2080894;28;20028;-84
2023/03/04 00:24:15;;;;;;;54.90;26.75;;;2.00;99.90;;;;;;2075643;28;20018;-84
2023/03/04 00:25:15;;;;;;;56.45;26.98;;;2.00;99.90;;;;;;2080440;28;20029;-83
2023/03/04 00:26:17;;;;;;;54.42;26.95;;;2.00;99.90;;;;;;2078026;28;20033;-84
2023/03/04 00:27:19;;;;;;;55.03;26.95;;;2.00;99.90;;;;;;2078534;28;20041;-83
2023/03/04 00:28:20;;;;;;;52.95;26.13;;;2.00;99.90;;;;;;2078180;28;20030;-82
2023/03/04 00:29:21;;;;;;;54.92;27.45;;;2.00;99.90;;;;;;2086384;28;20029;-82
2023/03/04 00:30:21;;;;;;;59.33;27.40;;;2.00;99.90;;;;;;2089947;28;20045;-83
2023/03/04 00:31:22;;;;;;;53.65;26.88;;;2.00;99.90;;;;;;2078448;28;20323;-82
2023/03/04 00:32:23;;;;;;;52.78;25.88;;;2.00;99.90;;;;;;2078879;28;20032;-80
2023/03/04 00:33:24;;;;;;;53.22;26.48;;;2.00;99.90;;;;;;2082222;28;20029;-83
2023/03/04 00:34:24;;;;;;;52.03;26.13;;;2.00;99.90;;;;;;2080447;28;20108;-82
2023/03/04 00:35:25;;;;;;;54.85;26.83;;;2.00;99.90;;;;;;2079041;28;20084;-84
2023/03/04 00:36:27;;;;;;;53.30;26.67;;;2.00;99.90;;;;;;2079246;28;20185;-83
2023/03/04 00:37:29;;;;;;;50.85;26.20;;;2.00;99.90;;;;;;2079814;28;20029;-84
2023/03/04 00:38:30;;;;;;;56.33;27.60;;;2.00;99.90;;;;;;2069984;28;20362;-84
2023/03/04 00:39:30;;;;;;;50.97;26.05;;;2.00;99.90;;;;;;2085233;28;20048;-83
2023/03/04 00:40:31;;;;;;;53.53;26.70;;;2.00;99.90;;;;;;2080180;28;20365;-84
2023/03/04 00:41:31;;;;;;;53.97;26.60;;;2.00;99.90;;;;;;2072123;28;20030;-84
2023/03/04 00:42:32;;;;;;;53.70;26.27;;;2.00;99.90;;;;;;2078813;28;20079;-83
2023/03/04 00:43:32;;;;;;;52.70;26.55;;;2.00;99.90;;;;;;2080432;28;20575;-83
2023/03/04 00:44:36;;;;;;;50.30;25.83;;;2.00;99.90;;;;;;2079949;28;20025;-84
2023/03/04 00:45:36;;;;;;;52.05;25.35;;;2.00;99.90;;;;;;2079455;28;20244;-84
2023/03/04 00:46:37;;;;;;;51.85;26.42;;;2.00;99.90;;;;;;2080251;28;20160;-83
2023/03/04 00:47:37;;;;;;;51.83;26.17;;;2.10;99.90;;;;;;2094382;28;20587;-82
2023/03/04 00:48:39;;;;;;;53.72;26.58;;;2.10;99.90;;;;;;2086067;28;20032;-84
2023/03/04 00:49:39;;;;;;;51.75;26.80;;;2.10;99.90;;;;;;2082025;28;20171;-84
2023/03/04 00:50:40;;;;;;;52.25;26.75;;;2.10;99.90;;;;;;2074524;28;20212;-83
2023/03/04 00:51:40;;;;;;;52.05;26.30;;;2.10;99.90;;;;;;2080626;28;20461;-84
2023/03/04 00:52:41;;;;;;;51.72;27.20;;;2.10;99.90;;;;;;2079629;28;20492;-82
2023/03/04 00:53:41;;;;;;;52.67;27.13;;;2.10;99.90;;;;;;2092778;28;20522;-83
2023/03/04 00:54:42;;;;;;;54.63;27.38;;;2.10;99.90;;;;;;2092934;28;20032;-84
2023/03/04 00:55:43;;;;;;;53.80;26.73;;;2.10;99.90;;;;;;2082674;28;20025;-84
2023/03/04 00:56:43;;;;;;;54.45;27.38;;;2.10;99.90;;;;;;2074895;28;21147;-84
2023/03/04 00:57:44;;;;;;;53.70;27.50;;;2.00;99.90;;;;;;2084049;28;20025;-85
2023/03/04 00:58:44;;;;;;;51.72;26.40;;;2.00;99.90;;;;;;2085959;28;20037;-84
2023/03/04 00:59:45;;;;;;;55.90;27.85;;;2.00;99.90;;;;;;2088501;28;20377;-83
2023/03/04 01:00:46;;;;;;;51.42;26.40;;;2.10;99.90;;;;;;2087656;28;20405;-85
2023/03/04 01:01:46;;;;;;;54.72;27.73;;;2.10;99.90;;;;;;2088997;28;20071;-84
2023/03/04 01:02:47;;;;;;;54.30;27.55;;;2.10;99.90;;;;;;2071071;28;20404;-85
2023/03/04 01:03:47;;;;;;;54.90;27.73;;;2.10;99.90;;;;;;2072433;28;20091;-83
2023/03/04 01:04:48;;;;;;;52.47;26.90;;;2.10;99.90;;;;;;2076889;28;20565;-83
2023/03/04 01:05:49;;;;;;;54.75;28.40;;;2.10;99.90;;;;;;2077505;28;20456;-84
2023/03/04 01:06:50;;;;;;;51.35;27.10;;;2.10;99.90;;;;;;2086141;28;20029;-83
2023/03/04 01:07:51;;;;;;;54.20;27.80;;;2.00;99.90;;;;;;2080320;28;20118;-84
2023/03/04 01:08:51;;;;;;;50.72;26.15;;;2.10;99.90;;;;;;2075892;28;20048;-73
2023/03/04 01:09:52;;;;;;;54.63;27.05;;;2.00;99.90;;;;;;2087199;28;20025;-83
2023/03/04 01:10:52;;;;;;;51.60;27.33;;;2.10;99.90;;;;;;2077041;28;20673;-85
2023/03/04 01:11:53;;;;;;;53.65;26.80;;;2.10;99.90;;;;;;2072974;28;20056;-83
2023/03/04 01:12:54;;;;;;;51.90;26.27;;;2.10;99.90;;;;;;2080799;28;20024;-84
2023/03/04 01:13:55;;;;;;;53.80;27.67;;;2.10;99.90;;;;;;2079567;28;20021;-83
2023/03/04 01:14:55;;;;;;;53.97;27.77;;;2.00;99.90;;;;;;2082016;28;20029;-84
2023/03/04 01:15:56;;;;;;;49.13;25.88;;;2.00;99.90;;;;;;2077231;28;20643;-84
2023/03/04 01:16:57;;;;;;;49.97;26.58;;;2.00;99.90;;;;;;2079877;28;20033;-84
2023/03/04 01:17:58;;;;;;;51.40;26.27;;;2.00;99.90;;;;;;2078268;28;20030;-85
2023/03/04 01:18:58;;;;;;;48.33;25.45;;;2.00;99.90;;;;;;2073959;28;20575;-84
2023/03/04 01:19:59;;;;;;;54.22;27.38;;;2.00;99.90;;;;;;2082827;28;20127;-83
2023/03/04 01:21:00;;;;;;;48.03;26.63;;;2.00;99.90;;;;;;2094814;28;20064;-83
2023/03/04 01:22:03;;;;;;;53.47;26.73;;;2.00;99.90;;;;;;2079048;28;20531;-83
2023/03/04 01:23:03;;;;;;;49.70;25.27;;;2.00;99.90;;;;;;2080790;28;20033;-83
2023/03/04 01:24:04;;;;;;;49.38;26.15;;;2.10;99.90;;;;;;2078499;28;20025;-84
2023/03/04 01:25:05;;;;;;;49.88;26.30;;;2.00;99.90;;;;;;2078012;28;20489;-83
2023/03/04 01:26:06;;;;;;;49.90;26.10;;;2.10;99.90;;;;;;2077944;28;20543;-84
2023/03/04 01:27:06;;;;;;;48.22;26.05;;;2.00;99.90;;;;;;2080273;28;20044;-83
2023/03/04 01:28:07;;;;;;;48.53;25.45;;;2.00;99.90;;;;;;2070583;28;20045;-83
2023/03/04 01:29:08;;;;;;;47.13;25.42;;;2.00;99.90;;;;;;2079018;28;20028;-82
2023/03/04 01:30:09;;;;;;;48.35;25.48;;;2.00;99.90;;;;;;2078819;28;20541;-84
2023/03/04 01:31:10;;;;;;;48.03;26.10;;;2.10;99.90;;;;;;2094996;28;20478;-79
2023/03/04 01:32:10;;;;;;;48.20;26.15;;;2.00;99.90;;;;;;2087458;28;20044;-82
2023/03/04 01:33:11;;;;;;;48.08;25.85;;;2.00;99.90;;;;;;2066364;28;20034;-84
2023/03/04 01:34:11;;;;;;;47.35;25.67;;;2.00;99.90;;;;;;2077680;28;20132;-83
2023/03/04 01:35:12;;;;;;;48.58;25.90;;;2.00;99.90;;;;;;2080338;28;20634;-83
2023/03/04 01:36:13;;;;;;;44.13;25.20;;;2.00;99.90;;;;;;2078061;28;20029;-83
2023/03/04 01:37:13;;;;;;;46.03;25.08;;;2.00;99.90;;;;;;2078629;28;20025;-83
2023/03/04 01:38:14;;;;;;;46.95;25.17;;;2.00;99.90;;;;;;2078053;28;20141;-83
2023/03/04 01:39:14;;;;;;;48.10;26.13;;;2.00;99.90;;;;;;2080809;28;20792;-86
2023/03/04 01:40:15;;;;;;;44.20;24.42;;;2.00;99.90;;;;;;2085005;28;20151;-84
2023/03/04 01:41:21;;;;;;;45.65;24.95;;;2.00;99.90;;;;;;2074461;28;20245;-84
2023/03/04 01:42:25;;;;;;;46.08;25.38;;;2.00;99.90;;;;;;2077136;28;20029;-84
2023/03/04 01:43:28;;;;;;;47.05;24.77;;;2.00;99.90;;;;;;2077170;28;20565;-85
2023/03/04 01:44:28;;;;;;;46.50;25.20;;;2.00;99.90;;;;;;2077524;28;20028;-83
2023/03/04 01:45:31;;;;;;;44.38;25.50;;;2.00;99.90;;;;;;2081112;28;20531;-84
2023/03/04 01:46:32;;;;;;;44.85;25.55;;;2.10;99.90;;;;;;2099923;28;20081;-84
2023/03/04 01:47:34;;;;;;;47.35;24.92;;;2.10;99.90;;;;;;2100615;28;20023;-83
2023/03/04 01:48:37;;;;;;;46.33;25.75;;;2.10;99.90;;;;;;2082775;28;20029;-83
2023/03/04 01:49:38;;;;;;;45.40;25.60;;;2.10;99.90;;;;;;2075682;28;20555;-84
2023/03/04 01:50:38;;;;;;;43.05;24.77;;;2.10;99.90;;;;;;2078724;28;20128;-83
2023/03/04 01:51:42;;;;;;;43.88;25.17;;;2.10;99.90;;;;;;2079871;28;20052;-81
2023/03/04 01:52:43;;;;;;;42.63;24.55;;;2.10;99.90;;;;;;2074815;28;20029;-81
2023/03/04 01:53:46;;;;;;;43.28;24.38;;;2.10;99.90;;;;;;2083366;28;20127;-82
2023/03/04 01:54:47;;;;;;;42.13;23.95;;;2.10;99.90;;;;;;2085585;28;20673;-82
2023/03/04 01:55:51;;;;;;;42.92;23.73;;;2.10;99.90;;;;;;2075821;28;20034;-82
2023/03/04 01:56:59;;;;;;;45.47;24.40;;;2.10;99.90;;;;;;2078592;28;20112;-80
2023/03/04 01:58:00;;;;;;;45.08;24.83;;;2.10;99.90;;;;;;2096204;28;20036;-81
2023/03/04 01:59:13;;;;;;;42.08;23.52;;;2.10;99.90;;;;;;2086683;28;20035;-83
2023/03/04 02:00:22;;;;;;;44.53;24.42;;;2.10;99.90;;;;;;2081272;28;20124;-84
2023/03/04 02:01:22;;;;;;;41.33;23.92;;;2.10;99.90;;;;;;2085443;28;20495;-83
2023/03/04 02:02:23;;;;;;;41.33;23.65;;;2.10;99.90;;;;;;2078504;28;20040;-83
2023/03/04 02:03:24;;;;;;;43.85;24.58;;;2.10;99.90;;;;;;2077959;28;20025;-82
2023/03/04 02:04:28;;;;;;;49.20;25.40;;;2.00;99.90;;;;;;2078406;28;20024;-83
2023/03/04 02:05:29;;;;;;;46.30;25.40;;;2.10;99.90;;;;;;2095183;28;20365;-83
2023/03/04 02:06:31;;;;;;;41.97;23.75;;;2.10;99.90;;;;;;2096282;28;20024;-81
2023/03/04 02:07:32;;;;;;;42.90;24.05;;;2.00;99.90;;;;;;2078360;28;20040;-83
2023/03/04 02:08:34;;;;;;;40.15;23.45;;;2.00;99.90;;;;;;2077051;28;20025;-81
2023/03/04 02:09:35;;;;;;;44.30;24.17;;;2.10;99.90;;;;;;2080679;28;20037;-83
2023/03/04 02:10:37;;;;;;;43.63;24.67;;;2.00;99.90;;;;;;2079513;28;20567;-82
2023/03/04 02:11:40;;;;;;;43.75;25.27;;;2.10;99.90;;;;;;2079555;28;20032;-83
2023/03/04 02:12:40;;;;;;;40.63;24.05;;;2.10;99.90;;;;;;2078120;28;20033;-83
2023/03/04 02:13:41;;;;;;;43.63;25.08;;;2.00;99.90;;;;;;2081468;28;20067;-84
2023/03/04 02:14:42;;;;;;;42.35;23.98;;;2.00;99.90;;;;;;2081331;28;20456;-84
2023/03/04 02:15:44;;;;;;;41.67;25.15;;;2.00;99.90;;;;;;2080111;28;20045;-83
2023/03/04 02:16:45;;;;;;;39.50;23.20;;;2.10;99.90;;;;;;2077967;28;20083;-84
2023/03/04 02:17:49;;;;;;;42.97;24.67;;;2.00;99.90;;;;;;2077086;28;20400;-82
2023/03/04 02:18:49;;;;;;;39.53;24.23;;;2.10;99.90;;;;;;2077229;28;20037;-83
2023/03/04 02:20:14;;;;;;;41.10;24.15;;;2.10;99.90;;;;;;2077682;28;20040;-81
2023/03/04 02:21:27;;;;;;;41.03;24.02;;;2.10;99.90;;;;;;2078070;28;20385;-83
2023/03/04 02:22:28;;;;;;;40.25;24.02;;;2.10;99.90;;;;;;2084484;28;20008;-83
2023/03/04 02:24:08;;;;;;;41.25;24.27;;;2.10;99.90;;;;;;2086050;28;20036;-83
2023/03/04 02:25:20;;;;;;;38.60;22.45;;;2.10;99.90;;;;;;2075252;28;20016;-84
2023/03/04 02:26:27;;;;;;;41.53;23.58;;;2.10;99.90;;;;;;2070932;28;20515;-83
2023/03/04 02:27:28;;;;;;;40.70;23.70;;;2.10;99.90;;;;;;2078735;28;20199;-82
2023/03/04 02:28:29;;;;;;;43.92;24.80;;;2.10;99.90;;;;;;2078577;28;20029;-82
2023/03/04 02:29:30;;;;;;;39.50;23.77;;;2.10;99.90;;;;;;2077642;28;20504;-80
2023/03/04 02:30:30;;;;;;;39.80;23.88;;;2.10;99.90;;;;;;2074620;28;20056;-83
2023/03/04 02:31:37;;;;;;;40.40;24.50;;;2.10;99.90;;;;;;2078960;28;20041;-83
2023/03/04 02:32:38;;;;;;;40.83;24.27;;;2.10;99.90;;;;;;2079071;28;20047;-82
2023/03/04 02:33:38;;;;;;;41.10;24.17;;;2.10;99.90;;;;;;2076049;28;20535;-82
2023/03/04 02:34:46;;;;;;;39.50;24.42;;;2.10;99.90;;;;;;2092399;28;20032;-83
2023/03/04 02:35:47;;;;;;;41.55;25.10;;;2.10;99.90;;;;;;2096000;28;20111;-81
2023/03/04 02:36:50;;;;;;;39.10;24.17;;;2.10;99.90;;;;;;2094382;28;20047;-83
2023/03/04 02:37:50;;;;;;;41.40;24.10;;;2.10;99.90;;;;;;2084752;28;20032;-85
2023/03/04 02:38:52;;;;;;;39.45;24.30;;;2.10;99.90;;;;;;2082918;28;20084;-81
2023/03/04 02:39:53;;;;;;;41.15;24.33;;;2.10;99.90;;;;;;2077803;28;20021;-83
2023/03/04 02:40:56;;;;;;;38.30;23.67;;;2.10;99.90;;;;;;2078751;28;20025;-83
2023/03/04 02:41:57;;;;;;;39.42;24.52;;;2.10;99.90;;;;;;2088406;28;20053;-84
2023/03/04 02:42:59;;;;;;;42.28;24.90;;;2.10;99.90;;;;;;2092907;28;20027;-82
2023/03/04 02:44:00;;;;;;;41.55;24.55;;;2.10;99.90;;;;;;2086673;28;20025;-83
2023/03/04 02:45:01;;;;;;;40.75;24.65;;;2.10;99.90;;;;;;2079514;28;20497;-81
2023/03/04 02:46:02;;;;;;;38.47;23.92;;;2.10;99.90;;;;;;2089951;28;20035;-82
2023/03/04 02:47:05;;;;;;;38.85;24.67;;;2.10;99.90;;;;;;2105094;28;20596;-84
2023/03/04 02:48:06;;;;;;;38.13;24.17;;;2.10;99.90;;;;;;2097931;28;20039;-83
2023/03/04 02:49:07;;;;;;;42.03;25.10;;;2.10;99.90;;;;;;2081905;28;20026;-83
2023/03/04 02:50:08;;;;;;;41.33;24.80;;;2.10;99.90;;;;;;2096138;28;20125;-82
2023/03/04 02:51:09;;;;;;;39.03;24.25;;;2.10;99.90;;;;;;2090036;28;20041;-82
2023/03/04 02:52:21;;;;;;;39.15;24.25;;;2.10;99.90;;;;;;2080517;28;20255;-82
2023/03/04 02:53:24;;;;;;;40.08;24.13;;;2.10;99.90;;;;;;2093174;28;20028;-83
2023/03/04 02:54:25;;;;;;;43.72;25.35;;;2.10;99.90;;;;;;2096265;28;20069;-83
2023/03/04 02:55:25;;;;;;;42.15;24.65;;;2.10;99.90;;;;;;2097219;28;20070;-81
2023/03/04 02:56:26;;;;;;;42.25;25.23;;;2.10;99.90;;;;;;2088302;28;20121;-83
2023/03/04 02:57:27;;;;;;;39.20;24.38;;;2.10;99.90;;;;;;2087415;28;20099;-84
2023/03/04 02:58:28;;;;;;;39.40;24.95;;;2.10;99.90;;;;;;2091436;28;20098;-82
2023/03/04 02:59:29;;;;;;;42.00;25.45;;;2.10;99.90;;;;;;2087195;28;20031;-82
2023/03/04 03:00:30;;;;;;;40.90;25.60;;;2.10;99.90;;;;;;2100584;28;20047;-82
2023/03/04 03:01:30;;;;;;;38.60;24.20;;;2.10;99.90;;;;;;2092701;28;20113;-83
2023/03/04 03:02:31;;;;;;;41.67;25.60;;;2.10;99.90;;;;;;2080246;28;20036;-84
2023/03/04 03:03:32;;;;;;;42.03;24.83;;;2.10;99.90;;;;;;2077489;28;20025;-82
2023/03/04 03:04:35;;;;;;;41.92;24.58;;;2.10;99.90;;;;;;2077149;28;20036;-83
2023/03/04 03:05:37;;;;;;;44.30;25.95;;;2.10;99.90;;;;;;2073435;28;20029;-83
2023/03/04 03:06:39;;;;;;;42.90;25.23;;;2.10;99.90;;;;;;2082305;28;20060;-82
2023/03/04 03:07:39;;;;;;;41.65;24.35;;;2.10;99.90;;;;;;2082739;28;20094;-80
2023/03/04 03:08:40;;;;;;;41.97;25.10;;;2.10;99.90;;;;;;2089497;28;20022;-81
2023/03/04 03:09:41;;;;;;;38.90;24.42;;;2.10;99.90;;;;;;2079236;28;20057;-85
2023/03/04 03:10:41;;;;;;;43.97;25.17;;;2.10;99.90;;;;;;2078316;28;20571;-83
2023/03/04 03:11:42;;;;;;;46.67;28.63;;;2.10;99.90;;;;;;2093430;28;20134;-82
2023/03/04 03:12:43;;;;;;;42.20;24.95;;;2.10;99.90;;;;;;2086362;28;20143;-82
2023/03/04 03:13:44;;;;;;;40.72;24.05;;;2.10;99.90;;;;;;2085595;28;20077;-80
2023/03/04 03:14:45;;;;;;;42.78;24.50;;;2.10;99.90;;;;;;2081019;28;20029;-84
2023/03/04 03:15:48;;;;;;;40.38;25.27;;;2.10;99.90;;;;;;2077277;28;20037;-84
2023/03/04 03:16:49;;;;;;;40.78;24.83;;;2.10;99.90;;;;;;2092660;28;20063;-83
2023/03/04 03:17:50;;;;;;;40.28;23.77;;;2.10;99.90;;;;;;2095458;28;20087;-83
2023/03/04 03:18:50;;;;;;;39.83;24.42;;;2.10;99.90;;;;;;2085084;28;20477;-81
2023/03/04 03:19:52;;;;;;;41.97;25.23;;;2.10;99.90;;;;;;2085900;28;20156;-84
2023/03/04 03:20:52;;;;;;;41.58;24.52;;;2.10;99.90;;;;;;2103051;28;20103;-82
2023/03/04 03:21:53;;;;;;;41.95;24.65;;;2.10;99.90;;;;;;2094821;28;20024;-82
2023/03/04 03:22:53;;;;;;;42.22;24.52;;;2.10;99.90;;;;;;2074508;28;20045;-82
2023/03/04 03:23:54;;;;;;;41.42;25.30;;;2.10;99.90;;;;;;2082110;28;20033;-82
2023/03/04 03:24:54;;;;;;;42.58;24.58;;;2.00;99.90;;;;;;2090692;28;20028;-81
2023/03/04 03:25:55;;;;;;;40.75;24.45;;;2.10;99.90;;;;;;2088550;28;20059;-82
2023/03/04 03:26:56;;;;;;;42.47;24.55;;;2.10;99.90;;;;;;2084613;28;20041;-83
2023/03/04 03:27:56;;;;;;;40.70;24.67;;;2.10;99.90;;;;;;2074177;28;20026;-82
2023/03/04 03:28:57;;;;;;;41.80;24.83;;;2.10;99.90;;;;;;2086823;28;20032;-81
2023/03/04 03:29:57;;;;;;;41.15;24.80;;;2.00;99.90;;;;;;2097015;28;20031;-83
2023/03/04 03:30:58;;;;;;;43.28;25.20;;;2.00;99.90;;;;;;2077064;28;20032;-83
2023/03/04 03:31:58;;;;;;;39.22;23.65;;;2.00;99.90;;;;;;2075508;28;20030;-82
2023/03/04 03:32:59;;;;;;;40.95;24.45;;;2.00;99.90;;;;;;2079128;28;20040;-84
2023/03/04 03:34:00;;;;;;;42.40;24.40;;;2.00;99.90;;;;;;2070955;28;20030;-84
2023/03/04 03:35:01;;;;;;;44.30;24.60;;;2.10;99.90;;;;;;2069315;28;20025;-83
2023/03/04 03:36:03;;;;;;;44.60;24.42;;;2.10;99.90;;;;;;2078909;28;20041;-84
2023/03/04 03:37:04;;;;;;;41.85;24.42;;;2.00;99.90;;;;;;2086378;28;20035;-82
2023/03/04 03:38:04;;;;;;;41.85;24.23;;;2.10;99.90;;;;;;2080388;28;20135;-85
2023/03/04 03:39:05;;;;;;;40.55;23.95;;;2.00;99.90;;;;;;2077019;28;20028;-84
2023/03/04 03:40:06;;;;;;;43.58;24.48;;;2.00;99.90;;;;;;2077067;28;20092;-83
2023/03/04 03:41:07;;;;;;;44.22;24.35;;;2.00;99.90;;;;;;2069240;28;20041;-84
2023/03/04 03:42:07;;;;;;;42.08;24.23;;;2.00;99.90;;;;;;2078804;28;20060;-84
2023/03/04 03:43:08;;;;;;;41.28;24.40;;;2.00;99.90;;;;;;2078986;28;20037;-83
2023/03/04 03:44:08;;;;;;;41.95;24.52;;;2.00;99.90;;;;;;2082026;28;20029;-84
2023/03/04 03:45:09;;;;;;;41.85;24.17;;;2.00;99.90;;;;;;2080613;28;20018;-85
2023/03/04 03:46:10;;;;;;;41.13;24.35;;;2.00;99.90;;;;;;2079112;28;20030;-83
2023/03/04 03:47:10;;;;;;;41.28;23.98;;;2.00;99.90;;;;;;2083001;28;20024;-83
2023/03/04 03:48:11;;;;;;;42.38;23.77;;;2.00;99.90;;;;;;2082246;28;20126;-70
2023/03/04 03:49:11;;;;;;;44.40;23.98;;;2.00;99.90;;;;;;2080076;28;20040;-85
2023/03/04 03:50:12;;;;;;;45.22;25.10;;;2.00;99.90;;;;;;2079284;28;20083;-78
2023/03/04 03:51:13;;;;;;;45.67;23.88;;;2.00;99.90;;;;;;2093755;28;20036;-74
2023/03/04 03:52:13;;;;;;;41.17;23.67;;;2.00;99.90;;;;;;2085847;28;20029;-83
2023/03/04 03:53:14;;;;;;;43.60;24.10;;;2.00;99.90;;;;;;2079954;28;20083;-83
2023/03/04 03:54:15;;;;;;;40.97;23.17;;;2.00;99.90;;;;;;2090856;28;20060;-81
2023/03/04 03:55:15;;;;;;;44.92;25.27;;;2.00;99.90;;;;;;2094791;28;20036;-85
2023/03/04 03:56:16;;;;;;;42.55;23.60;;;2.10;99.90;;;;;;2086900;28;20025;-84
2023/03/04 03:57:16;;;;;;;42.83;24.23;;;2.00;99.90;;;;;;2087518;28;20455;-85
2023/03/04 03:58:17;;;;;;;43.22;23.83;;;2.10;99.90;;;;;;2077647;28;20430;-82
2023/03/04 03:59:17;;;;;;;42.10;23.55;;;2.00;99.90;;;;;;2082421;28;20317;-83
2023/03/04 04:00:18;;;;;;;46.45;24.73;;;2.00;99.90;;;;;;2078405;28;20041;-83
2023/03/04 04:01:19;;;;;;;43.03;23.80;;;2.00;99.90;;;;;;2080724;28;20025;-84
2023/03/04 04:02:19;;;;;;;44.20;24.70;;;2.00;99.90;;;;;;2080155;28;20052;-83
2023/03/04 04:03:20;;;;;;;43.15;24.02;;;2.00;99.90;;;;;;2075496;28;20029;-83
2023/03/04 04:04:21;;;;;;;41.67;22.98;;;2.00;99.90;;;;;;2080612;28;20233;-82
2023/03/04 04:05:21;;;;;;;43.50;23.30;;;2.00;99.90;;;;;;2093626;28;20047;-80
2023/03/04 04:06:22;;;;;;;40.85;23.50;;;2.10;99.90;;;;;;2087045;28;20135;-84
2023/03/04 04:07:23;;;;;;;41.42;23.48;;;2.10;99.90;;;;;;2079832;28;20036;-82
2023/03/04 04:08:23;;;;;;;45.13;22.70;;;2.10;99.90;;;;;;2080728;28;20056;-85
2023/03/04 04:09:24;;;;;;;40.45;21.80;;;2.10;99.90;;;;;;2075536;28;20013;-81
2023/03/04 04:10:24;;;;;;;41.22;22.23;;;2.10;99.90;;;;;;2078815;28;20036;-82
2023/03/04 04:11:25;;;;;;;40.05;22.35;;;2.10;99.90;;;;;;2081287;28;20431;-82
2023/03/04 04:12:25;;;;;;;41.20;23.08;;;2.00;99.90;;;;;;2080526;28;20041;-83
2023/03/04 04:13:26;;;;;;;38.13;22.58;;;2.00;99.90;;;;;;2080451;28;20472;-82
2023/03/04 04:14:26;;;;;;;40.60;22.88;;;2.00;99.90;;;;;;2079159;28;20078;-84
2023/03/04 04:15:27;;;;;;;42.78;22.33;;;2.00;99.90;;;;;;2079072;28;20025;-83
2023/03/04 04:16:28;;;;;;;37.13;21.85;;;2.00;99.90;;;;;;2080920;28;20134;-83
2023/03/04 04:17:28;;;;;;;39.10;22.30;;;2.00;99.90;;;;;;2080734;28;20487;-75
2023/03/04 04:18:29;;;;;;;41.50;22.23;;;2.10;99.90;;;;;;2078629;28;20118;-75
2023/03/04 04:19:29;;;;;;;41.10;22.42;;;2.00;99.90;;;;;;2078779;28;20025;-74
2023/03/04 04:20:30;;;;;;;38.90;21.20;;;2.00;99.90;;;;;;2080089;28;20044;-74
2023/03/04 04:21:31;;;;;;;37.50;22.52;;;2.10;99.90;;;;;;2086240;28;20033;-74
2023/03/04 04:22:31;;;;;;;39.25;21.45;;;2.10;99.90;;;;;;2085941;28;20033;-74
2023/03/04 04:23:32;;;;;;;38.72;21.73;;;2.10;99.90;;;;;;2079905;28;20025;-74
2023/03/04 04:24:33;;;;;;;39.78;21.65;;;2.10;99.90;;;;;;2083929;28;20082;-74
2023/03/04 04:25:34;;;;;;;37.40;21.55;;;2.10;99.90;;;;;;2091480;28;20032;-74
2023/03/04 04:26:35;;;;;;;40.03;21.98;;;2.10;99.90;;;;;;2094272;28;20024;-76
2023/03/04 04:27:35;;;;;;;40.72;22.05;;;2.10;99.90;;;;;;2078478;28;20099;-73
2023/03/04 04:28:36;;;;;;;41.55;22.25;;;2.10;99.90;;;;;;2079895;28;20056;-74
2023/03/04 04:29:36;;;;;;;39.00;21.55;;;2.10;99.90;;;;;;2079005;28;20029;-73
2023/03/04 04:30:37;;;;;;;39.72;21.88;;;2.20;99.90;;;;;;2081737;28;20553;-73
2023/03/04 04:31:38;;;;;;;39.85;21.92;;;2.20;99.90;;;;;;2078049;28;20030;-73
2023/03/04 04:32:38;;;;;;;39.97;22.38;;;2.20;99.90;;;;;;2079308;28;20043;-73
2023/03/04 04:33:39;;;;;;;39.08;22.40;;;2.20;99.90;;;;;;2078753;28;20116;-73
2023/03/04 04:34:39;;;;;;;40.70;22.27;;;2.20;99.90;;;;;;2088512;28;20457;-74
2023/03/04 04:35:40;;;;;;;41.60;22.73;;;2.20;99.90;;;;;;2086512;28;20024;-73
2023/03/04 04:36:40;;;;;;;39.72;22.58;;;2.20;99.90;;;;;;2077436;28;20033;-73
2023/03/04 04:37:41;;;;;;;42.90;22.60;;;2.20;99.90;;;;;;2078355;28;20396;-73
2023/03/04 04:38:42;;;;;;;38.33;21.83;;;2.20;99.90;;;;;;2079042;28;20060;-74
2023/03/04 04:39:42;;;;;;;42.85;22.63;;;2.20;99.90;;;;;;2081212;28;20029;-73
2023/03/04 04:40:43;;;;;;;39.50;22.63;;;2.20;99.90;;;;;;2079771;28;20376;-73
2023/03/04 04:41:45;;;;;;;40.28;21.83;;;2.20;99.90;;;;;;2077535;28;20025;-75
2023/03/04 04:42:45;;;;;;;40.85;22.38;;;2.20;99.90;;;;;;2079267;28;20021;-72
2023/03/04 04:43:47;;;;;;;42.20;21.67;;;2.20;99.90;;;;;;2079810;28;20036;-75
2023/03/04 04:44:47;;;;;;;42.63;22.17;;;2.20;99.90;;;;;;2076028;28;20601;-75
2023/03/04 04:45:48;;;;;;;40.05;22.23;;;2.20;99.90;;;;;;2076211;28;20037;-73
2023/03/04 04:46:49;;;;;;;41.58;22.75;;;2.20;99.90;;;;;;2080102;28;20048;-73
2023/03/04 04:47:50;;;;;;;38.90;22.02;;;2.20;99.90;;;;;;2084652;28;20033;-74
2023/03/04 04:48:51;;;;;;;42.70;21.70;;;2.30;99.90;;;;;;2079837;28;20029;-73
2023/03/04 04:49:51;;;;;;;39.95;22.38;;;2.30;99.90;;;;;;2087121;28;20536;-74
2023/03/04 04:50:55;;;;;;;42.55;22.67;;;2.20;99.90;;;;;;2095313;28;20024;-74
2023/03/04 04:51:55;;;;;;;43.78;22.95;;;2.20;99.90;;;;;;2079421;28;20025;-74
2023/03/04 04:52:56;;;;;;;44.03;22.33;;;2.20;99.90;;;;;;2080720;28;20065;-73
2023/03/04 04:53:58;;;;;;;39.03;21.35;;;2.30;99.90;;;;;;2077764;28;20033;-73
2023/03/04 04:54:59;;;;;;;38.38;21.67;;;2.30;99.90;;;;;;2082388;28;20033;-75
2023/03/04 04:55:59;;;;;;;43.60;23.27;;;2.30;99.90;;;;;;2075244;28;20404;-74
2023/03/04 04:57:00;;;;;;;40.13;21.55;;;2.30;99.90;;;;;;2077500;28;20252;-75
2023/03/04 04:58:00;;;;;;;39.80;21.67;;;2.30;99.90;;;;;;2074970;28;20503;-74
2023/03/04 04:59:03;;;;;;;45.13;22.75;;;2.30;99.90;;;;;;2080284;28;20115;-74
2023/03/04 05:00:05;;;;;;;44.13;23.63;;;2.30;99.90;;;;;;2079008;28;20118;-74
2023/03/04 05:01:06;;;;;;;38.30;21.95;;;2.30;99.90;;;;;;2078855;28;20064;-74
2023/03/04 05:02:07;;;;;;;42.75;22.85;;;2.30;99.90;;;;;;2072092;28;20045;-75
2023/03/04 05:03:08;;;;;;;44.47;23.05;;;2.30;99.90;;;;;;2077812;28;20361;-74
2023/03/04 05:04:08;;;;;;;42.15;22.85;;;2.30;99.90;;;;;;2078398;28;20033;-74
2023/03/04 05:05:09;;;;;;;39.00;22.08;;;2.30;99.90;;;;;;2077549;28;20231;-74
2023/03/04 05:06:11;;;;;;;41.17;22.83;;;2.30;99.90;;;;;;2079970;28;20045;-74
2023/03/04 05:07:12;;;;;;;43.00;22.25;;;2.20;99.90;;;;;;2079036;28;20026;-74
2023/03/04 05:08:12;;;;;;;41.13;22.70;;;2.20;99.90;;;;;;2078766;28;20121;-74
2023/03/04 05:09:13;;;;;;;38.85;22.45;;;2.30;99.90;;;;;;2075971;28;20029;-74
2023/03/04 05:10:13;;;;;;;40.13;21.55;;;2.20;99.90;;;;;;2082355;28;20028;-73
2023/03/04 05:11:15;;;;;;;41.92;22.33;;;2.30;99.90;;;;;;2080291;28;20556;-74
2023/03/04 05:12:15;;;;;;;41.67;21.83;;;2.30;99.90;;;;;;2075765;28;20033;-75
2023/03/04 05:13:18;;;;;;;42.25;22.17;;;2.30;99.90;;;;;;2078187;28;20076;-75
2023/03/04 05:14:18;;;;;;;41.78;22.85;;;2.30;99.90;;;;;;2077859;28;20087;-75
2023/03/04 05:15:19;;;;;;;40.45;21.42;;;2.30;99.90;;;;;;2077235;28;20353;-75